FMEP/ZSE METAR and TAF weather

Enter ICAO airport designator
Station Type Date Time Source
FMEP METAR 2020/11/27 14:30 UTC NOAA

FMEP 271430Z AUTO 11011KT CAVOK 25/21 Q1015 NOSIG


Station Type Date Time Source
FMEP Decoded METAR 2020/11/27 14:30 UTC NOAA

Saint-Pierre, Reunion (FMEP) 21-20S 055-29E 53M
Nov 27, 2020 - 09:30 AM EST / 2020.11.27 1430 UTC
Wind: from the ESE (110 degrees) at 13 MPH (11 KT):0
Visibility: greater than 7 mile(s):0
Temperature: 77 F (25 C)
Dew Point: 69 F (21 C)
Relative Humidity: 78%
Pressure (altimeter): 29.97 in. Hg (1015 hPa)
ob: FMEP 271430Z AUTO 11011KT CAVOK 25/21 Q1015 NOSIG
cycle: 14

Station Type Date Time Source
FMEP TAF 2020/08/08 06:00 UTC NOAA

TAF FMEP 080500Z 0806/0815 27010KT 9999 FEW030

Example: see airport list